• Join FlightAware (Why Join?)
  • Login
  • US Flag 
01:09PM EDT


 

Airport Tracker/Info


-or-


 

Live Flight TrackerFlight Track Log ✈ N554CE ✈ 16-Aug-2013 ✈ EHGG / GRQ - KHPN

Flight Track Log - Related Links

Times and Time Zones

All times are in EDT time to prevent confusion due to time zone crossing. See the N554CE flight status page for this flight to view local times or setup timezone preferences in your user account.

Time Position Orientation Groundspeed Altitude Reporting Facility
EDT Latitude Longitude Course Direction KTS MPH feet Rate Location/Type
04:07PM 56.0560 -15.5870 281° West 417 480 43,000  Level FlightAware
04:08PM 56.0670 -15.6910 281° West 417 480 43,000  Level FlightAware
04:10PM 56.0775 -16.0490 273° West  Level Estimated
04:11PM 56.0832 -16.2596 273° West  Level Estimated
04:12PM 56.0886 -16.4703 273° West  Level Estimated
04:13PM 56.0936 -16.6811 273° West  Level Estimated
04:14PM 56.0983 -16.8919 272° West  Level Estimated
04:15PM 56.1025 -17.1028 272° West  Level Estimated
04:16PM 56.1064 -17.3137 272° West  Level Estimated
04:17PM 56.1100 -17.5247 272° West  Level Estimated
04:18PM 56.1132 -17.7357 272° West  Level Estimated
04:19PM 56.1161 -17.9467 271° West  Level Estimated
04:20PM 56.1185 -18.1577 271° West  Level Estimated
04:21PM 56.1207 -18.3688 271° West  Level Estimated
04:22PM 56.1224 -18.5799 271° West  Level Estimated
04:23PM 56.1238 -18.7910 271° West  Level Estimated
04:24PM 56.1249 -19.0022 271° West  Level Estimated
04:25PM 56.1255 -19.2133 270° West  Level Estimated
04:26PM 56.1259 -19.4245 270° West  Level Estimated
04:27PM 56.1258 -19.6356 270° West  Level Estimated
04:28PM 56.1254 -19.8468 270° West  Level Estimated
04:29PM 56.1246 -20.0579 270° West  Level Estimated
04:30PM 56.1235 -20.2690 270° West  Level Estimated
04:30PM 57.0000 -20.0000 295° West 442 509 43,000  Level ETMS Enhanced Traffic Management System
04:31PM 56.1221 -20.4802 269° West  Level Estimated
04:32PM 56.1202 -20.6913 269° West  Level Estimated
04:33PM 56.1180 -20.9023 269° West  Level Estimated
04:34PM 56.1155 -21.1134 269° West  Level Estimated
04:35PM 56.1125 -21.3244 269° West  Level Estimated
04:36PM 57.4518 -21.8667 293° West 442 509 43,000  Level FlightAware Transoceanic
04:37PM 57.5003 -22.0770 293° West 442 509 43,000  Level FlightAware Transoceanic
04:38PM 57.5484 -22.2878 293° West 442 509 43,000  Level FlightAware Transoceanic
04:39PM 57.5962 -22.4991 293° West 442 509 43,000  Level FlightAware Transoceanic
04:40PM 57.6436 -22.7110 293° West 442 509 43,000  Level FlightAware Transoceanic
04:41PM 57.6907 -22.9234 292° West 442 509 43,000  Level FlightAware Transoceanic
04:42PM 57.7374 -23.1364 292° West 442 509 43,000  Level FlightAware Transoceanic
04:43PM 57.7837 -23.3500 292° West 442 509 43,000  Level FlightAware Transoceanic
04:44PM 57.8297 -23.5641 292° West 442 509 43,000  Level FlightAware Transoceanic
04:45PM 57.8753 -23.7787 292° West 442 509 43,000  Level FlightAware Transoceanic
04:46PM 57.9206 -23.9939 292° West 442 509 43,000  Level FlightAware Transoceanic
04:47PM 57.9655 -24.2096 291° West 442 509 43,000  Level FlightAware Transoceanic
04:48PM 58.0100 -24.4258 291° West 442 509 43,000  Level FlightAware Transoceanic
04:49PM 58.0542 -24.6426 291° West 442 509 43,000  Level FlightAware Transoceanic
04:50PM 58.0980 -24.8600 291° West 442 509 43,000  Level FlightAware Transoceanic
04:51PM 58.1414 -25.0778 291° West 442 509 43,000  Level FlightAware Transoceanic
04:52PM 58.1845 -25.2962 290° West 442 509 43,000  Level FlightAware Transoceanic
04:53PM 58.2272 -25.5152 290° West 442 509 43,000  Level FlightAware Transoceanic
04:54PM 58.2695 -25.7346 290° West 442 509 43,000  Level FlightAware Transoceanic
04:55PM 58.3114 -25.9546 290° West 442 509 43,000  Level FlightAware Transoceanic
04:56PM 58.3530 -26.1751 290° West 442 509 43,000  Level FlightAware Transoceanic
04:57PM 58.3941 -26.3960 289° West 442 509 43,000  Level FlightAware Transoceanic
04:58PM 58.4349 -26.6176 289° West 442 509 43,000  Level FlightAware Transoceanic
04:59PM 58.4753 -26.8396 289° West 442 509 43,000  Level FlightAware Transoceanic
05:00PM 58.5154 -27.0621 289° West 442 509 43,000  Level FlightAware Transoceanic
05:01PM 58.5550 -27.2852 289° West 442 509 43,000  Level FlightAware Transoceanic
05:02PM 58.5942 -27.5087 289° West 442 509 43,000  Level FlightAware Transoceanic
05:03PM 58.6331 -27.7328 288° West 442 509 43,000  Level FlightAware Transoceanic
05:04PM 58.6716 -27.9573 288° West 442 509 43,000  Level FlightAware Transoceanic
05:05PM 58.7096 -28.1824 288° West 442 509 43,000  Level FlightAware Transoceanic
05:06PM 58.7473 -28.4079 288° West 442 509 43,000  Level FlightAware Transoceanic
05:07PM 58.7846 -28.6339 288° West 442 509 43,000  Level FlightAware Transoceanic
05:08PM 58.8215 -28.8604 287° West 442 509 43,000  Level FlightAware Transoceanic
05:09PM 58.8580 -29.0874 287° West 442 509 43,000  Level FlightAware Transoceanic
05:10PM 58.8941 -29.3148 287° West 442 509 43,000  Level FlightAware Transoceanic
05:11PM 58.9298 -29.5427 287° West 442 509 43,000  Level FlightAware Transoceanic
05:12PM 58.9651 -29.7711 287° West 442 509 43,000  Level FlightAware Transoceanic
05:13PM 58.9985 -29.9901 287° West  Level FlightAware Approximate
05:14PM 59.0315 -30.2096 286° West  Level FlightAware Approximate
05:15PM 59.0078 -30.2074 274° West  Level FlightAware Approximate
05:15PM 59.0000 -30.0000 274° West 451 519 43,000  Level ETMS Enhanced Traffic Management System
05:16PM 59.0161 -30.4354 274° West  Level FlightAware Approximate
05:17PM 59.0239 -30.6636 274° West  Level FlightAware Approximate
05:18PM 59.0313 -30.8918 274° West  Level FlightAware Approximate
05:19PM 59.0384 -31.1201 274° West  Level FlightAware Approximate
05:20PM 59.0450 -31.3485 273° West  Level FlightAware Approximate
05:21PM 59.0660 -32.1915 272° West 451 519 43,000  Level FlightAware Transoceanic
05:22PM 59.0710 -32.4355 272° West 451 519 43,000  Level FlightAware Transoceanic
05:23PM 59.0756 -32.6795 272° West 451 519 43,000  Level FlightAware Transoceanic
05:24PM 59.0798 -32.9236 272° West 451 519 43,000  Level FlightAware Transoceanic
05:25PM 59.0834 -33.1678 272° West 451 519 43,000  Level FlightAware Transoceanic
05:26PM 59.0867 -33.4120 271° West 451 519 43,000  Level FlightAware Transoceanic
05:27PM 59.0894 -33.6562 271° West 451 519 43,000  Level FlightAware Transoceanic
05:28PM 59.0917 -33.9005 271° West 451 519 43,000  Level FlightAware Transoceanic
05:29PM 59.0935 -34.1448 271° West 451 519 43,000  Level FlightAware Transoceanic
05:30PM 59.0949 -34.3891 271° West 451 519 43,000  Level FlightAware Transoceanic
05:31PM 59.0958 -34.6335 270° West 451 519 43,000  Level FlightAware Transoceanic
05:32PM 59.0963 -34.8778 270° West 451 519 43,000  Level FlightAware Transoceanic
05:33PM 59.0963 -35.1222 270° West 451 519 43,000  Level FlightAware Transoceanic
05:34PM 59.0958 -35.3665 270° West 451 519 43,000  Level FlightAware Transoceanic
05:35PM 59.0949 -35.6109 269° West 451 519 43,000  Level FlightAware Transoceanic
05:36PM 59.0935 -35.8552 269° West 451 519 43,000  Level FlightAware Transoceanic
05:37PM 59.0917 -36.0995 269° West 451 519 43,000  Level FlightAware Transoceanic
05:38PM 59.0894 -36.3438 269° West 451 519 43,000  Level FlightAware Transoceanic
05:39PM 59.0867 -36.5880 269° West 451 519 43,000  Level FlightAware Transoceanic
05:40PM 59.0834 -36.8322 268° West 451 519 43,000  Level FlightAware Transoceanic
05:41PM 59.0798 -37.0764 268° West 451 519 43,000  Level FlightAware Transoceanic
05:42PM 59.0756 -37.3205 268° West 451 519 43,000  Level FlightAware Transoceanic
05:43PM 59.0710 -37.5645 268° West 451 519 43,000  Level FlightAware Transoceanic
05:44PM 59.0660 -37.8085 268° West 451 519 43,000  Level FlightAware Transoceanic
05:45PM 59.0605 -38.0524 267° West 451 519 43,000  Level FlightAware Transoceanic
05:46PM 59.0545 -38.2962 267° West 451 519 43,000  Level FlightAware Transoceanic
05:47PM 59.0481 -38.5399 267° West 451 519 43,000  Level FlightAware Transoceanic
05:48PM 59.0412 -38.7835 267° West 451 519 43,000  Level FlightAware Transoceanic
05:49PM 59.0339 -39.0270 267° West 451 519 43,000  Level FlightAware Transoceanic
05:50PM 59.0261 -39.2705 266° West 451 519 43,000  Level FlightAware Transoceanic
05:51PM 59.0179 -39.5138 266° West 451 519 43,000  Level FlightAware Transoceanic
05:52PM 59.0092 -39.7569 266° West 451 519 43,000  Level FlightAware Transoceanic
05:53PM 59.0006 -39.9849 266° West  Level FlightAware Approximate
05:54PM 58.9917 -40.2127 266° West  Level FlightAware Approximate
05:55PM 58.9705 -40.1896 253° West  Level FlightAware Approximate
05:55PM 59.0000 -40.0000 254° West 452 520 43,000  Level ETMS Enhanced Traffic Management System
05:56PM 58.9361 -40.4079 253° West  Level FlightAware Approximate
05:57PM 58.9014 -40.6257 253° West  Level FlightAware Approximate
05:58PM 58.8663 -40.8431 253° West  Level FlightAware Approximate
05:59PM 58.8308 -41.0600 253° West  Level FlightAware Approximate
06:00PM 58.7950 -41.2765 252° West  Level FlightAware Approximate
06:01PM 58.7029 -41.8577 252° West 452 520 43,000  Level FlightAware Transoceanic
06:02PM 58.6639 -42.0876 252° West 452 520 43,000  Level FlightAware Transoceanic
06:03PM 58.6245 -42.3171 252° West 452 520 43,000  Level FlightAware Transoceanic
06:04PM 58.5847 -42.5460 251° West 452 520 43,000  Level FlightAware Transoceanic
06:05PM 58.5444 -42.7743 251° West 452 520 43,000  Level FlightAware Transoceanic
06:06PM 58.5038 -43.0022 251° West 452 520 43,000  Level FlightAware Transoceanic
06:07PM 58.4628 -43.2295 251° West 452 520 43,000  Level FlightAware Transoceanic
06:08PM 58.4214 -43.4563 251° West 452 520 43,000  Level FlightAware Transoceanic
06:09PM 58.3795 -43.6826 250° West 452 520 43,000  Level FlightAware Transoceanic
06:10PM 58.3373 -43.9083 250° West 452 520 43,000  Level FlightAware Transoceanic
06:11PM 58.2947 -44.1335 250° West 452 520 43,000  Level FlightAware Transoceanic
06:12PM 58.2517 -44.3581 250° West 452 520 43,000  Level FlightAware Transoceanic
06:13PM 58.2082 -44.5822 250° West 452 520 43,000  Level FlightAware Transoceanic
06:14PM 58.1645 -44.8058 250° West 452 520 43,000  Level FlightAware Transoceanic
06:15PM 58.1203 -45.0287 249° West 452 520 43,000  Level FlightAware Transoceanic
06:16PM 58.0757 -45.2512 249° West 452 520 43,000  Level FlightAware Transoceanic
06:17PM 58.0307 -45.4730 249° West 452 520 43,000  Level FlightAware Transoceanic
06:18PM 57.9854 -45.6944 249° West 452 520 43,000  Level FlightAware Transoceanic
06:19PM 57.9396 -45.9151 249° West 452 520 43,000  Level FlightAware Transoceanic
06:20PM 57.8935 -46.1353 248° West 452 520 43,000  Level FlightAware Transoceanic
06:21PM 57.8470 -46.3549 248° West 452 520 43,000  Level FlightAware Transoceanic
06:22PM 57.8001 -46.5740 248° West 452 520 43,000  Level FlightAware Transoceanic
06:23PM 57.7529 -46.7925 248° West 452 520 43,000  Level FlightAware Transoceanic
06:24PM 57.7052 -47.0104 248° West 452 520 43,000  Level FlightAware Transoceanic
06:25PM 57.6572 -47.2277 247° West 452 520 43,000  Level FlightAware Transoceanic
06:26PM 57.6089 -47.4445 247° West 452 520 43,000  Level FlightAware Transoceanic
06:27PM 57.5601 -47.6606 247° West 452 520 43,000  Level FlightAware Transoceanic
06:28PM 57.5110 -47.8762 247° West 452 520 43,000  Level FlightAware Transoceanic
06:29PM 57.4615 -48.0913 247° West 452 520 43,000  Level FlightAware Transoceanic
06:30PM 57.4117 -48.3057 247° West 452 520 43,000  Level FlightAware Transoceanic
06:31PM 57.3615 -48.5196 246° West 452 520 43,000  Level FlightAware Transoceanic
06:32PM 57.3109 -48.7328 246° West 452 520 43,000  Level FlightAware Transoceanic
06:33PM 57.2600 -48.9455 246° West 452 520 43,000  Level FlightAware Transoceanic
06:34PM 57.2087 -49.1576 246° West 452 520 43,000  Level FlightAware Transoceanic
06:35PM 57.1571 -49.3691 246° West 452 520 43,000  Level FlightAware Transoceanic
06:36PM 57.1050 -49.5800 245° Southwest 452 520 43,000  Level FlightAware Transoceanic
06:37PM 57.0527 -49.7903 245° Southwest 452 520 43,000  Level FlightAware Transoceanic
06:38PM 57.0034 -49.9866 245° Southwest  Level FlightAware Approximate
06:39PM 56.9537 -50.1824 245° Southwest  Level FlightAware Approximate
06:39PM 57.0000 -50.0000 252° West 454 522 43,000  Level ETMS Enhanced Traffic Management System
06:40PM 56.9684 -50.1773 252° West  Level FlightAware Approximate
06:41PM 56.9316 -50.3823 252° West  Level FlightAware Approximate
06:42PM 56.8944 -50.5868 252° West  Level FlightAware Approximate
06:43PM 56.8569 -50.7909 251° West  Level FlightAware Approximate
06:44PM 56.8190 -50.9946 251° West  Level FlightAware Approximate
06:45PM 56.7189 -51.5333 251° West 454 522 43,000  Level FlightAware Transoceanic
06:46PM 56.6773 -51.7504 251° West 454 522 43,000  Level FlightAware Transoceanic
06:47PM 56.6352 -51.9671 250° West 454 522 43,000  Level FlightAware Transoceanic
06:48PM 56.5928 -52.1833 250° West 454 522 43,000  Level FlightAware Transoceanic
06:49PM 56.5500 -52.3989 250° West 454 522 43,000  Level FlightAware Transoceanic
06:50PM 56.5068 -52.6141 250° West 454 522 43,000  Level FlightAware Transoceanic
06:51PM 56.4632 -52.8288 250° West 454 522 43,000  Level FlightAware Transoceanic
06:52PM 56.4193 -53.0430 250° West 454 522 43,000  Level FlightAware Transoceanic
06:53PM 56.3750 -53.2568 249° West 454 522 43,000  Level FlightAware Transoceanic
06:54PM 56.3304 -53.4700 249° West 454 522 43,000  Level FlightAware Transoceanic
06:55PM 56.2854 -53.6827 249° West 454 522 43,000  Level FlightAware Transoceanic
06:56PM 56.2400 -53.8949 249° West 454 522 43,000  Level FlightAware Transoceanic
06:57PM 56.1943 -54.1066 249° West 454 522 43,000  Level FlightAware Transoceanic
06:58PM 56.1482 -54.3178 249° West 454 522 43,000  Level FlightAware Transoceanic
06:59PM 56.1017 -54.5285 248° West 454 522 43,000  Level FlightAware Transoceanic
07:00PM 56.0549 -54.7387 248° West 454 522 43,000  Level FlightAware Transoceanic
07:01PM 56.0077 -54.9484 248° West 454 522 43,000  Level FlightAware Transoceanic
07:02PM 55.9602 -55.1576 248° West 454 522 43,000  Level FlightAware Transoceanic
07:03PM 55.9123 -55.3662 248° West 454 522 43,000  Level FlightAware Transoceanic
07:04PM 55.8641 -55.5743 247° West 454 522 43,000  Level FlightAware Transoceanic
07:05PM 55.8155 -55.7820 247° West 454 522 43,000  Level FlightAware Transoceanic
07:06PM 55.7665 -55.9890 247° West 454 522 43,000  Level FlightAware Transoceanic
07:07PM 55.7172 -56.1956 247° West 454 522 43,000  Level FlightAware Transoceanic
07:08PM 55.6676 -56.4017 247° West 454 522 43,000  Level FlightAware Transoceanic
07:09PM 55.6176 -56.6072 247° West 454 522 43,000  Level FlightAware Transoceanic
07:10PM 55.5673 -56.8122 246° West 454 522 43,000  Level FlightAware Transoceanic
07:11PM 55.5086 -56.9912 240° Southwest  Level FlightAware Approximate
07:11PM 55.5000 -57.0167 232° Southwest 460 529 43,000  Level Moncton Center
07:12PM 55.5167 -56.9798 270° West  Level FlightAware Approximate
07:12PM 55.4333 -57.1667 232° Southwest 460 529 43,000  Level Gander Center
07:13PM 55.4580 -57.1512 232° Southwest  Level FlightAware Approximate
07:13PM 55.3500 -57.3500 231° Southwest 460 529 43,000  Level Gander Center
07:14PM 55.3863 -57.3144 232° Southwest  Level FlightAware Approximate
07:14PM 55.2667 -57.5333 231° Southwest 470 541 43,000  Level Gander Center
07:15PM 55.3145 -57.4770 232° Southwest  Level FlightAware Approximate
07:15PM 55.1833 -57.6833 226° Southwest 470 541 43,000  Level Gander Center
07:16PM 55.2424 -57.6390 232° Southwest  Level FlightAware Approximate
07:16PM 55.1000 -57.8667 232° Southwest 470 541 43,000  Level Gander Center
07:17PM 55.1701 -57.8004 232° Southwest  Level FlightAware Approximate
07:17PM 55.0167 -58.0167 226° Southwest 470 541 43,000  Level Gander Center
07:18PM 54.9500 -58.2000 238° Southwest 460 529 43,000  Level Gander Center
07:19PM 54.8167 -58.4167 223° Southwest 460 529 43,000  Level Moncton Center
07:20PM 54.7333 -58.5833 229° Southwest 460 529 43,000  Level Moncton Center
07:21PM 54.6500 -58.7667 232° Southwest 460 529 43,000  Level Moncton Center
07:22PM 54.6167 -58.8500 235° Southwest 460 529 43,000  Level Gander Center
07:23PM 54.5167 -59.0333 227° Southwest 460 529 43,000  Level Gander Center
07:24PM 54.4000 -59.2500 227° Southwest 460 529 43,000  Level Moncton Center
07:25PM 54.3333 -59.3667 226° Southwest 460 529 43,000  Level Gander Center
07:26PM 54.2500 -59.5333 229° Southwest 460 529 43,000  Level Gander Center
07:27PM 54.1667 -59.6833 227° Southwest 460 529 43,000  Level Gander Center
07:28PM 54.0833 -59.8500 230° Southwest 460 529 43,000  Level Gander Center
07:29PM 54.0000 -60.0333 232° Southwest 460 529 43,000  Level Gander Center
07:30PM 53.8833 -60.2333 225° Southwest 470 541 43,000  Level Moncton Center
07:31PM 53.8333 -60.3500 234° Southwest 470 541 43,000  Level Gander Center
07:32PM 53.7500 -60.5167 230° Southwest 470 541 43,000  Level Gander Center
07:33PM 53.6500 -60.6667 222° Southwest 470 541 43,000  Level Gander Center
07:34PM 53.5667 -60.8333 230° Southwest 470 541 43,000  Level Gander Center
07:35PM 53.4833 -61.0000 230° Southwest 470 541 43,000  Level Gander Center
07:36PM 53.3833 -61.1500 222° Southwest 460 529 43,000  Level Gander Center
07:37PM 53.3000 -61.3167 230° Southwest 460 529 43,000  Level Gander Center
07:38PM 53.2167 -61.4833 230° Southwest 460 529 43,000  Level Gander Center
07:39PM 53.1333 -61.6167 224° Southwest 460 529 43,000  Level Gander Center
07:40PM 53.0333 -61.7833 225° Southwest 460 529 43,000  Level Gander Center
07:41PM 52.9500 -61.9167 224° Southwest 470 541 43,000  Level Gander Center
07:42PM 52.8167 -62.1500 227° Southwest 470 541 43,000  Level Moncton Center
07:43PM 52.7333 -62.3000 227° Southwest 470 541 43,000  Level Moncton Center
07:44PM 52.6333 -62.4667 225° Southwest 470 541 43,000  Level Moncton Center
07:45PM 52.5667 -62.5500 217° Southwest 470 541 43,000  Level Gander Center
07:46PM 52.4500 -62.7833 231° Southwest 470 541 43,000  Level Moncton Center
07:47PM 52.3667 -62.9167 224° Southwest 470 541 43,000  Level Moncton Center
07:48PM 52.2833 -63.0500 224° Southwest 470 541 43,000  Level Moncton Center
07:49PM 52.1833 -63.2167 226° Southwest 470 541 43,000  Level Moncton Center
07:50PM 52.1000 -63.3167 216° Southwest 470 541 43,000  Level Gander Center
07:51PM 52.0167 -63.4833 231° Southwest 470 541 43,000  Level Gander Center
07:52PM 51.9167 -63.6333 223° Southwest 470 541 43,000  Level Gander Center
07:53PM 51.8333 -63.8000 231° Southwest 480 552 43,000  Level Gander Center
07:54PM 51.7500 -63.9500 228° Southwest 470 541 43,000  Level Gander Center
07:55PM 51.6500 -64.0500 212° Southwest 470 541 43,000  Level Montreal Center
07:56PM 51.5667 -64.1833 225° Southwest 470 541 43,000  Level Montreal Center
07:57PM 51.4667 -64.3333 223° Southwest 470 541 43,000  Level Montreal Center
07:58PM 51.3667 -64.4667 220° Southwest 470 541 43,000  Level Montreal Center
07:59PM 51.2667 -64.6333 226° Southwest 470 541 43,000  Level Montreal Center
08:00PM 51.1833 -64.7667 225° Southwest 470 541 43,000  Level Montreal Center
08:01PM 51.1000 -64.9167 229° Southwest 480 552 43,000  Level Montreal Center
08:02PM 50.9833 -65.0500 216° Southwest 480 552 43,000  Level Montreal Center
08:03PM 50.9000 -65.2167 232° Southwest 480 552 43,000  Level Montreal Center
08:04PM 50.8000 -65.3667 223° Southwest 480 552 43,000  Level Montreal Center
08:05PM 50.7000 -65.5000 220° Southwest 480 552 43,000  Level Montreal Center
08:06PM 50.6000 -65.6500 224° Southwest 480 552 43,000  Level Montreal Center
08:07PM 50.5167 -65.7833 226° Southwest 470 541 43,000  Level Montreal Center
08:08PM 50.4167 -65.9333 224° Southwest 470 541 43,000  Level Montreal Center
08:09PM 50.3167 -66.0667 220° Southwest 470 541 43,000  Level Montreal Center
08:10PM 50.2333 -66.2167 229° Southwest 470 541 43,000  Level Montreal Center
08:11PM 50.1167 -66.3500 216° Southwest 470 541 43,000  Level Montreal Center
08:12PM 50.0333 -66.5000 229° Southwest 470 541 43,000  Level Montreal Center
08:13PM 49.9333 -66.6167 217° Southwest 470 541 43,000  Level Montreal Center
08:14PM 49.8333 -66.7667 224° Southwest 460 529 43,000  Level Montreal Center
08:15PM 49.7500 -66.9000 226° Southwest 460 529 43,000  Level Montreal Center
08:16PM 49.6333 -67.0500 220° Southwest 470 541 43,000  Level Montreal Center
08:17PM 49.5500 -67.1667 222° Southwest 460 529 43,000  Level Montreal Center
08:18PM 49.4500 -67.2833 217° Southwest 470 541 43,000  Level Montreal Center
08:19PM 49.3500 -67.4333 224° Southwest 470 541 43,000  Level Montreal Center
08:20PM 49.2500 -67.5500 217° Southwest 470 541 43,000  Level Montreal Center
08:21PM 49.1667 -67.7000 230° Southwest 460 529 43,000  Level Montreal Center
08:22PM 49.0667 -67.8167 217° Southwest 460 529 43,000  Level Montreal Center
08:23PM 48.9667 -67.9667 225° Southwest 470 541 43,000  Level Montreal Center
08:24PM 48.8667 -68.0833 218° Southwest 460 529 43,000  Level Montreal Center
08:25PM 48.7667 -68.2333 225° Southwest 460 529 43,000  Level Montreal Center
08:31PM 48.2080 -68.9900 225° Southwest 472 543 43,000  Level FlightAware
08:31PM 48.1450 -69.0530 214° Southwest 473 544 43,000  Level FlightAware
08:32PM 48.0790 -69.1180 213° Southwest 473 544 43,000  Level FlightAware
08:32PM 48.0160 -69.1800 213° Southwest 473 544 43,000  Level FlightAware
08:33PM 47.9520 -69.2430 213° Southwest 472 543 43,000  Level FlightAware
08:34PM 47.8810 -69.3120 213° Southwest 469 540 43,000  Level FlightAware
08:34PM 47.8160 -69.3750 213° Southwest 467 537 43,000  Level FlightAware
08:35PM 47.7530 -69.4360 213° Southwest 467 537 43,000  Level FlightAware
08:35PM 47.6900 -69.4970 213° Southwest 469 540 43,000  Level FlightAware
08:36PM 47.6270 -69.5590 214° Southwest 470 541 43,000  Level FlightAware
08:37PM 47.5630 -69.6210 213° Southwest 472 543 43,000  Level FlightAware
08:37PM 47.5000 -69.6810 213° Southwest 470 541 43,000  Level FlightAware
08:38PM 47.4180 -69.7600 213° Southwest 467 537 43,000  Level FlightAware
08:39PM 47.3550 -69.8190 212° Southwest 467 537 43,000  Level FlightAware
08:39PM 47.2920 -69.8800 213° Southwest 467 537 43,000  Level FlightAware
08:40PM 47.2370 -69.9320 213° Southwest 468 539 43,000  Level FlightAware
08:40PM 47.1640 -70.0000 212° Southwest 468 539 43,000  Level FlightAware
08:41PM 47.1010 -70.0600 213° Southwest 466 536 43,000  Level FlightAware
08:41PM 47.0380 -70.1200 213° Southwest 466 536 43,000  Level FlightAware
08:42PM 46.9660 -70.1870 212° Southwest 467 537 43,000  Level FlightAware
08:43PM 46.9020 -70.2470 213° Southwest 468 539 43,000  Level FlightAware
08:43PM 46.8390 -70.3060 213° Southwest 469 540 43,000  Level FlightAware
08:44PM 46.7750 -70.3650 212° Southwest 468 539 43,000  Level FlightAware
08:44PM 46.7120 -70.4240 213° Southwest 467 537 43,000  Level FlightAware
08:45PM 46.6500 -70.4810 212° Southwest 464 534 43,000  Level FlightAware
08:46PM 46.5850 -70.5410 212° Southwest 463 533 43,000  Level FlightAware
08:46PM 46.5220 -70.5990 212° Southwest 463 533 43,000  Level FlightAware
08:47PM 46.4590 -70.6560 212° Southwest 463 533 43,000  Level FlightAware
08:47PM 46.3960 -70.7140 212° Southwest 463 533 43,000  Level FlightAware
08:48PM 46.3330 -70.7720 212° Southwest 462 532 43,000  Level FlightAware
08:49PM 46.2690 -70.8290 212° Southwest 461 531 43,000  Level FlightAware
08:49PM 46.2060 -70.8860 212° Southwest 461 531 43,000  Level FlightAware
08:50PM 46.1440 -70.9420 212° Southwest 458 527 43,000  Level FlightAware
08:50PM 46.0810 -70.9990 212° Southwest 458 527 43,000  Level FlightAware
08:51PM 46.0190 -71.0550 212° Southwest 458 527 43,000  Level FlightAware
08:51PM 45.9560 -71.1120 212° Southwest 458 527 43,000  Level FlightAware
08:52PM 45.8930 -71.1680 212° Southwest 460 529 43,000  Level FlightAware
08:53PM 45.8300 -71.2240 212° Southwest 462 532 43,000  Level FlightAware
08:53PM 45.7670 -71.2800 212° Southwest 458 527 43,000  Level FlightAware
08:54PM 45.7040 -71.3360 212° Southwest 453 521 43,000  Level FlightAware
08:54PM 45.6430 -71.3900 212° Southwest 452 520 43,000  Level FlightAware
08:55PM 45.5800 -71.4450 211° Southwest 451 519 43,000  Level FlightAware
08:56PM 45.5200 -71.4990 212° Southwest 454 522 43,000  Level FlightAware
08:56PM 45.4570 -71.5540 211° Southwest 456 525 43,000  Level FlightAware
08:57PM 45.3940 -71.6090 212° Southwest 456 525 43,000  Level FlightAware
08:57PM 45.3310 -71.6640 212° Southwest 457 526 43,000  Level FlightAware
08:58PM 45.2680 -71.7190 212° Southwest 454 522 43,000  Level FlightAware
08:58PM 45.2060 -71.7730 212° Southwest 452 520 43,000  Level FlightAware
08:59PM 45.1440 -71.8260 211° Southwest 451 519 43,000  Level FlightAware
09:00PM 45.0830 -71.8790 212° Southwest 452 520 43,000  Level FlightAware
09:00PM 45.0200 -71.9330 211° Southwest 456 525 43,000  Level FlightAware
09:01PM 44.9590 -71.9860 212° Southwest 459 528 43,000  Level FlightAware
09:01PM 44.8960 -72.0400 211° Southwest 456 525 43,000  Level FlightAware
09:02PM 44.8420 -72.0860 211° Southwest 454 522 43,000  Level FlightAware
09:03PM 44.7520 -72.1630 211° Southwest 449 517 43,000  Level FlightAware
09:03PM 44.6930 -72.2130 211° Southwest 450 518 43,000  Level FlightAware
09:04PM 44.6250 -72.2710 211° Southwest 449 517 43,000  Level FlightAware
09:04PM 44.5680 -72.3190 211° Southwest 450 518 43,000  Level FlightAware
09:05PM 44.5070 -72.3700 211° Southwest 450 518 43,000  Level FlightAware
09:06PM 44.4400 -72.4270 211° Southwest 445 512 43,000  Level FlightAware
09:06PM 44.3750 -72.4810 211° Southwest 445 512 43,000  Level FlightAware
09:07PM 44.3200 -72.5270 211° Southwest 444 511 43,000 -600 Level FlightAware
09:07PM 44.2680 -72.5710 211° Southwest 432 497 42,400 -1,380 Descending FlightAware
09:08PM 44.2040 -72.6240 211° Southwest 417 480 41,400 -1,800 Descending FlightAware
09:08PM 44.1460 -72.6730 211° Southwest 415 478 40,200 -1,980 Descending FlightAware
09:09PM 44.0860 -72.7220 210° Southwest 415 478 39,100 -1,980 Descending FlightAware
09:10PM 44.0290 -72.7700 211° Southwest 413 475 37,900 -2,100 Descending FlightAware
09:10PM 43.9710 -72.8170 210° Southwest 413 475 36,700 -1,980 Descending FlightAware
09:11PM 43.9150 -72.8630 211° Southwest 410 472 35,600 -1,980 Descending FlightAware
09:11PM 43.8570 -72.9110 211° Southwest 415 478 34,400 -1,980 Descending FlightAware
09:12PM 43.7990 -72.9580 210° Southwest 416 479 33,300 -1,980 Descending FlightAware
09:13PM 43.7380 -73.0080 211° Southwest 427 491 32,100 -1,920 Descending FlightAware
09:13PM 43.6790 -73.0570 211° Southwest 431 496 30,900 -1,920 Descending FlightAware
09:14PM 43.6120 -73.1110 210° Southwest 431 496 29,700 -2,160 Descending FlightAware
09:14PM 43.5500 -73.1620 211° Southwest 414 476 28,400 -2,100 Descending FlightAware
09:15PM 43.4940 -73.2070 210° Southwest 418 481 27,300 -1,980 Descending FlightAware
09:16PM 43.4340 -73.2550 210° Southwest 414 476 26,100 -1,980 Descending FlightAware
09:16PM 43.3680 -73.3090 211° Southwest 413 475 24,800 -1,680 Descending FlightAware
09:17PM 43.3110 -73.3550 210° Southwest 408 470 24,000 -600 Descending FlightAware
09:18PM 43.2510 -73.4030 210° Southwest 407 468 24,000 -480 Level FlightAware
09:18PM 43.1850 -73.4550 210° Southwest 407 468 23,400 -2,160 Descending FlightAware
09:19PM 43.1300 -73.5000 211° Southwest 393 452 21,500 -1,620 Descending FlightAware
09:19PM 43.0790 -73.5400 210° Southwest 393 452 21,500 -2,040 Level FlightAware
09:20PM 43.0180 -73.5880 210° Southwest 389 448 19,100 -3,180 Descending FlightAware
09:21PM 42.9670 -73.6290 210° Southwest 385 443 18,000 -2,160 Descending FlightAware
09:21PM 42.9040 -73.6790 210° Southwest 384 442 16,600 -1,740 Descending FlightAware
09:22PM 42.8500 -73.7220 210° Southwest 379 436 15,800 -540 Descending FlightAware
09:23PM 42.7700 -73.7850 210° Southwest 376 433 15,800  Level FlightAware
09:23PM 42.7240 -73.8020 195° South 381 438 15,800  Level FlightAware
09:24PM 42.6600 -73.8140 188° South 381 438 15,800  Level FlightAware
09:24PM 42.6130 -73.8060 173° South 382 440 15,800  Level FlightAware
09:25PM 42.5520 -73.8070 181° South 382 440 15,800  Level FlightAware
09:25PM 42.4980 -73.8080 181° South 382 440 15,800  Level FlightAware
09:26PM 42.4440 -73.8090 181° South 382 440 15,800  Level FlightAware
09:27PM 42.3900 -73.8110 182° South 382 440 15,800  Level FlightAware
09:27PM 42.3360 -73.8120 181° South 382 440 15,800  Level FlightAware
09:28PM 42.2820 -73.8130 181° South 382 440 15,800 -2,040 Level FlightAware
09:29PM 42.1064 -73.8364 181° South 364 419 12,000 -1,800 Descending Boston Center
09:30PM 41.9958 -73.8425 182° South 364 419 11,700 -900 Descending Boston Center
09:36PM 41.5210 -73.8690 182° South 282 325 6,300 -960 Descending FlightAware
09:36PM 41.4920 -73.8710 183° South 280 322 6,000 -780 Descending FlightAware
09:37PM 41.4680 -73.8730 184° South 279 321 5,800 -360 Descending FlightAware
09:37PM 41.4440 -73.8740 182° South 281 323 5,800 -960 Level FlightAware
09:37PM 41.4100 -73.8760 183° South 281 323 5,100 -1,020 Descending FlightAware
09:38PM 41.3630 -73.8780 182° South 276 318 4,700 -600 Descending FlightAware
09:41PM 41.2130 -73.8180 163° South 2,800 -600 Descending FlightAware
09:41PM 41.2070 -73.8140 153° Southeast 160 184 2,800  Level FlightAware
09:42PM 41.1890 -73.8000 150° Southeast 161 185 2,800 -480 Level FlightAware
09:43PM 41.1500 -73.7667 150° Southeast 128 147 2,000 -660 Descending New York TRACON
09:44PM 41.1167 -73.7500 159° South 119 137 1,400 -600 Descending New York TRACON
09:45PM 41.0833 -73.7167 143° Southeast 117 135 800 -600 Descending New York TRACON